Aérodrome :
LOGIN :

S'inscrire | Disclaimer

   EN    FR    IT 

 










Légende :    VFR   VFR Marginal   IFR   IFR Intensif   IFR Très Intensif
Visi : 
Plafond : 
>= 8 km
>= 3000ft
5 à 8 km
1000 à 3000 ft
1500m à 5 km
500 à 1000 ft
800 à 1500m
200 à 500 ft
< 800m
< 200 ft
Symboles :   Orages  Brouillard  Fortes neiges  Fortes précipitations  Vent > 20 kt
SIGMETs :   Divers  Orages  Givrage  Turbulence  Onde Orograph.  Cendres Volcan.






- Altitude de l'aérodrome : 158 ft
- Code IATA : QAR


EHDL - Deelen Airbase

DERNIER METAR :
  • 162355Z AUTO 22017G28KT 170V280 9999 FEW021 SCT025 BKN028 09/06 Q1004 BLU

METARs EXPIRÉS :
  • 162325Z AUTO 21017KT 140V260 9999 FEW014 BKN020 BKN025 09/06 Q1004 WHT
  • 162255Z AUTO 21017KT 140V260 9999 FEW017 SCT021 BKN025 08/06 Q1003 WHT
  • 162225Z AUTO 22016KT 170V270 9999 SCT016 OVC020 08/06 Q1003 WHT
  • 162155Z AUTO 22015KT 160V270 9999 FEW015CB BKN016 OVC021 08/06 Q1002 WHT
  • 162125Z AUTO 22017G27KT 170V260 9999 FEW015CB SCT017 BKN021 OVC026 08/06 Q1002 WHT

Prévision TAF périmée.



MET'MAP, la Météo Aéronautique d'un coup d'oeil ! - Copyright ORBIFLY Décembre 2007 - Disclaimer

ORBIFLY MET'MAP TEAM :

Programmation & Développement : Alexandra Zaïnal
Sur une idée originale de : Baudouin d'Aumeries
Assistance à la programmation : Marc-Olivier Méhu
Soutien technique & logistique : Manuel Goepfert

Contact : metmap@orbifly.com




SOURCES & CREDITS :

   NOAA